createdAt,value
2022-12-31T00:01:26.288Z,12.60
2022-12-31T00:03:55.971Z,11.30
2022-12-31T00:06:28.508Z,12.20
2022-12-31T00:08:58.438Z,10.20
2022-12-31T00:11:27.944Z,11.20
2022-12-31T00:13:57.098Z,9.10
2022-12-31T00:16:33.552Z,9.40
2022-12-31T00:19:01.787Z,11.10
2022-12-31T00:21:31.670Z,12.10
2022-12-31T00:24:00.429Z,8.40
2022-12-31T00:26:31.153Z,10.50
2022-12-31T00:29:02.569Z,9.20
2022-12-31T00:31:33.591Z,8.90
2022-12-31T00:34:01.994Z,10.60
2022-12-31T00:36:32.863Z,11.10
2022-12-31T00:39:02.064Z,9.00
2022-12-31T00:41:30.396Z,11.20
2022-12-31T00:43:59.467Z,10.00
2022-12-31T00:46:27.790Z,9.30
2022-12-31T00:48:55.769Z,9.60
2022-12-31T00:51:27.440Z,9.50
2022-12-31T00:53:56.872Z,10.10
2022-12-31T00:56:27.765Z,11.20
2022-12-31T00:58:57.126Z,10.40
2022-12-31T01:01:28.553Z,10.90
2022-12-31T01:04:01.404Z,10.10
2022-12-31T01:06:29.906Z,9.20
2022-12-31T01:08:57.854Z,10.60
2022-12-31T01:11:29.514Z,10.10
2022-12-31T01:14:07.501Z,11.20
2022-12-31T01:16:42.102Z,8.00
2022-12-31T01:19:13.590Z,9.60
2022-12-31T01:21:43.496Z,9.70
2022-12-31T01:24:12.398Z,10.70
2022-12-31T01:26:40.664Z,10.50
2022-12-31T01:29:13.081Z,9.90
2022-12-31T01:31:41.530Z,9.70
2022-12-31T01:34:10.483Z,10.30
2022-12-31T01:36:38.997Z,10.80
2022-12-31T01:39:08.408Z,10.60
2022-12-31T01:41:45.964Z,8.20
2022-12-31T01:44:14.011Z,11.00
2022-12-31T01:46:50.323Z,10.80
2022-12-31T01:49:25.959Z,9.90
2022-12-31T01:52:08.196Z,9.80
2022-12-31T01:54:43.141Z,9.20
2022-12-31T01:57:11.946Z,10.40
2022-12-31T01:59:40.829Z,9.10
2022-12-31T02:02:08.929Z,10.30
2022-12-31T02:04:36.936Z,10.90
2022-12-31T02:07:07.706Z,8.60
2022-12-31T02:09:40.758Z,10.50
2022-12-31T02:12:09.924Z,9.70
2022-12-31T02:14:41.149Z,10.50
2022-12-31T02:17:27.183Z,12.00
2022-12-31T02:20:13.673Z,10.20
2022-12-31T02:23:08.123Z,9.30
2022-12-31T02:25:51.593Z,11.60
2022-12-31T02:28:39.260Z,10.20
2022-12-31T02:31:27.037Z,10.80
2022-12-31T02:34:02.740Z,9.90
2022-12-31T02:36:36.661Z,11.50
2022-12-31T02:39:07.582Z,10.10
2022-12-31T02:41:50.992Z,8.90
2022-12-31T02:44:26.547Z,10.00
2022-12-31T02:47:09.588Z,8.40
2022-12-31T02:49:43.160Z,9.00
2022-12-31T02:52:32.683Z,7.70
2022-12-31T02:55:09.061Z,8.80
2022-12-31T02:58:03.656Z,8.00
2022-12-31T03:00:55.240Z,9.10
2022-12-31T03:03:24.211Z,9.00
2022-12-31T03:05:52.640Z,10.10
2022-12-31T03:08:23.198Z,12.30
2022-12-31T03:10:51.179Z,10.20
2022-12-31T03:13:19.504Z,11.00
2022-12-31T03:15:49.811Z,10.70
2022-12-31T03:18:39.184Z,10.20
2022-12-31T03:21:30.747Z,10.80
2022-12-31T03:24:17.323Z,10.10
2022-12-31T03:26:45.258Z,8.30
2022-12-31T03:29:13.113Z,11.30
2022-12-31T03:31:40.990Z,9.50
2022-12-31T03:34:08.852Z,10.40
2022-12-31T03:36:36.875Z,10.70
2022-12-31T03:39:04.814Z,9.40
2022-12-31T03:41:32.780Z,9.60
2022-12-31T03:44:00.640Z,9.00
2022-12-31T03:46:28.572Z,8.70
2022-12-31T03:48:56.516Z,9.70
2022-12-31T03:51:24.469Z,7.80
2022-12-31T03:53:52.383Z,10.90
2022-12-31T03:56:20.616Z,8.30
2022-12-31T03:58:48.522Z,8.50
2022-12-31T04:01:16.460Z,8.60
2022-12-31T04:03:44.434Z,8.20
2022-12-31T04:06:12.342Z,7.60
2022-12-31T04:08:40.226Z,8.20
2022-12-31T04:11:08.569Z,8.70
2022-12-31T04:13:36.603Z,8.10
2022-12-31T04:16:04.812Z,8.20
2022-12-31T04:18:32.878Z,7.70
2022-12-31T04:21:05.217Z,7.40
2022-12-31T04:23:33.319Z,7.80
2022-12-31T04:26:01.253Z,8.50
2022-12-31T04:28:29.232Z,8.10
2022-12-31T04:30:57.270Z,7.40
2022-12-31T04:33:25.266Z,8.80
2022-12-31T04:35:53.225Z,8.10
2022-12-31T04:38:21.452Z,7.00
2022-12-31T04:41:07.950Z,10.10
2022-12-31T04:43:35.895Z,8.60
2022-12-31T04:46:04.037Z,8.70
2022-12-31T04:48:32.028Z,7.80
2022-12-31T04:51:00.099Z,9.20
2022-12-31T04:53:28.603Z,8.70
2022-12-31T04:55:56.621Z,8.70
2022-12-31T04:58:24.717Z,6.80
2022-12-31T05:00:54.659Z,8.50
2022-12-31T05:03:25.206Z,8.00
2022-12-31T05:05:54.222Z,9.80
2022-12-31T05:08:22.264Z,7.20
2022-12-31T05:10:50.378Z,8.90
2022-12-31T05:13:18.337Z,7.10
2022-12-31T05:15:47.101Z,7.50
2022-12-31T05:18:17.006Z,6.50
2022-12-31T05:20:45.774Z,6.00
2022-12-31T05:23:15.116Z,5.40
2022-12-31T05:25:45.537Z,6.70
2022-12-31T05:28:14.954Z,7.10
2022-12-31T05:30:44.435Z,6.40
2022-12-31T05:33:12.805Z,5.80
2022-12-31T05:35:41.280Z,6.70
2022-12-31T05:38:09.389Z,7.50
2022-12-31T05:40:38.252Z,7.20
2022-12-31T05:43:06.814Z,7.30
2022-12-31T05:45:34.973Z,7.90
2022-12-31T05:48:03.092Z,9.20
2022-12-31T05:50:31.855Z,7.20
2022-12-31T05:53:05.672Z,9.10
2022-12-31T05:55:33.885Z,7.40
2022-12-31T05:58:01.935Z,7.60
2022-12-31T06:00:30.301Z,7.40
2022-12-31T06:02:58.477Z,6.60
2022-12-31T06:05:27.041Z,6.30
2022-12-31T06:07:55.090Z,5.70
2022-12-31T06:10:22.961Z,7.20
2022-12-31T06:12:51.200Z,5.60
2022-12-31T06:15:19.402Z,6.30
2022-12-31T06:17:47.501Z,5.80
2022-12-31T06:20:16.583Z,6.20
2022-12-31T06:22:44.659Z,6.30
2022-12-31T06:25:12.759Z,4.80
2022-12-31T06:27:40.699Z,5.00
2022-12-31T06:30:10.204Z,4.00
2022-12-31T06:32:39.556Z,4.80
2022-12-31T06:35:08.010Z,6.60
2022-12-31T06:37:36.114Z,5.20
2022-12-31T06:40:05.132Z,4.40
2022-12-31T06:42:33.308Z,3.70
2022-12-31T06:45:01.425Z,9.80
2022-12-31T06:47:30.882Z,5.00
2022-12-31T06:49:58.838Z,4.90
2022-12-31T06:52:27.195Z,5.80
2022-12-31T06:54:58.392Z,5.60
2022-12-31T06:57:27.153Z,5.10
2022-12-31T06:59:55.395Z,5.80
2022-12-31T07:02:47.196Z,4.70
2022-12-31T07:05:28.703Z,5.80
2022-12-31T07:07:59.775Z,5.30
2022-12-31T07:10:35.592Z,5.20
2022-12-31T07:13:30.161Z,6.00
2022-12-31T07:16:16.288Z,5.00
2022-12-31T07:19:03.380Z,4.60
2022-12-31T07:21:39.999Z,4.20
2022-12-31T07:24:10.060Z,4.50
2022-12-31T07:26:52.615Z,5.50
2022-12-31T07:29:56.919Z,4.00
2022-12-31T07:32:33.947Z,4.50
2022-12-31T07:35:35.233Z,4.50
2022-12-31T07:38:36.117Z,5.20
2022-12-31T07:41:09.405Z,5.10
2022-12-31T07:43:54.506Z,5.30
2022-12-31T07:46:33.542Z,5.20
2022-12-31T07:49:01.973Z,5.20
2022-12-31T07:51:31.115Z,4.40
2022-12-31T07:53:59.121Z,6.00
2022-12-31T07:56:27.049Z,6.70
2022-12-31T07:59:24.228Z,6.00
2022-12-31T08:02:08.587Z,5.30
2022-12-31T08:04:50.840Z,7.50
2022-12-31T08:07:41.366Z,27.50
2022-12-31T08:10:18.618Z,9.50
2022-12-31T08:12:50.029Z,15.30
2022-12-31T08:15:20.051Z,30.50
2022-12-31T08:17:50.169Z,12.60
2022-12-31T08:20:18.538Z,9.90
2022-12-31T08:23:15.300Z,10.10
2022-12-31T08:26:05.415Z,17.40
2022-12-31T08:28:42.433Z,45.30
2022-12-31T08:31:19.353Z,27.30
2022-12-31T08:34:12.025Z,35.10
2022-12-31T08:37:06.568Z,11.80
2022-12-31T08:39:46.959Z,19.80
2022-12-31T08:42:27.521Z,19.90
2022-12-31T08:45:08.042Z,14.80
2022-12-31T08:48:18.517Z,20.30
2022-12-31T08:50:47.198Z,14.70
2022-12-31T08:53:15.702Z,8.30
2022-12-31T08:55:45.632Z,7.30
2022-12-31T08:58:53.201Z,7.00
2022-12-31T09:01:28.253Z,13.40
2022-12-31T09:04:15.514Z,5.40
2022-12-31T09:06:58.680Z,5.60
2022-12-31T09:09:59.788Z,5.40
2022-12-31T09:12:34.483Z,4.80
2022-12-31T09:15:28.225Z,5.90
2022-12-31T09:17:56.860Z,5.50
2022-12-31T09:20:44.357Z,4.20
2022-12-31T09:23:14.266Z,4.60
2022-12-31T09:26:06.938Z,4.30
2022-12-31T09:29:00.219Z,4.60
2022-12-31T09:31:34.175Z,3.60
2022-12-31T09:34:20.221Z,4.00
2022-12-31T09:37:02.173Z,4.00
2022-12-31T09:39:47.141Z,4.00
2022-12-31T09:42:28.701Z,4.20
2022-12-31T09:45:18.841Z,4.20
2022-12-31T09:48:21.073Z,3.60
2022-12-31T09:51:26.384Z,3.70
2022-12-31T09:54:12.757Z,3.90
2022-12-31T09:57:13.197Z,4.20
2022-12-31T09:59:53.005Z,5.00
2022-12-31T10:03:02.611Z,3.80
2022-12-31T10:05:46.741Z,5.50
2022-12-31T10:08:57.696Z,4.40
2022-12-31T10:12:13.822Z,4.20
2022-12-31T10:15:03.651Z,4.20
2022-12-31T10:17:59.874Z,3.30
2022-12-31T10:20:59.277Z,5.00
2022-12-31T10:23:27.659Z,4.10
2022-12-31T10:26:40.867Z,3.50
2022-12-31T10:29:09.287Z,4.60
2022-12-31T10:32:26.283Z,3.70
2022-12-31T10:35:18.615Z,3.40
2022-12-31T10:38:12.763Z,3.20
2022-12-31T10:41:03.271Z,4.40
2022-12-31T10:43:53.043Z,4.90
2022-12-31T10:47:03.054Z,4.60
2022-12-31T10:49:55.196Z,4.10
2022-12-31T10:52:45.708Z,4.50
2022-12-31T10:55:32.724Z,2.80
2022-12-31T10:58:25.609Z,3.40
2022-12-31T11:01:09.754Z,2.60
2022-12-31T11:04:23.814Z,4.30
2022-12-31T11:07:14.172Z,3.40
2022-12-31T11:10:01.244Z,3.60
2022-12-31T11:12:41.867Z,3.30
2022-12-31T11:15:22.805Z,2.70
2022-12-31T11:18:03.667Z,3.40
2022-12-31T11:20:39.007Z,2.60
2022-12-31T11:23:20.558Z,3.50
2022-12-31T11:26:06.039Z,3.20
2022-12-31T11:28:36.897Z,3.30
2022-12-31T11:31:23.556Z,2.90
2022-12-31T11:34:00.389Z,4.00
2022-12-31T11:37:09.621Z,3.30
2022-12-31T11:40:00.450Z,3.30
2022-12-31T11:42:44.161Z,3.70
2022-12-31T11:45:31.440Z,4.10
2022-12-31T11:48:32.038Z,3.60
2022-12-31T11:51:33.617Z,4.90
2022-12-31T11:54:56.197Z,4.30
2022-12-31T11:57:30.067Z,3.80
2022-12-31T12:00:02.250Z,3.80
2022-12-31T12:03:07.218Z,5.60
2022-12-31T12:05:38.443Z,5.90
2022-12-31T12:08:07.281Z,7.30
2022-12-31T12:10:44.745Z,9.50
2022-12-31T12:13:28.018Z,7.50
2022-12-31T12:16:09.473Z,5.50
2022-12-31T12:18:48.079Z,7.50
2022-12-31T12:21:20.751Z,6.90
2022-12-31T12:24:05.035Z,5.50
2022-12-31T12:26:44.785Z,8.40
2022-12-31T12:29:21.771Z,4.60
2022-12-31T12:32:00.968Z,5.80
2022-12-31T12:34:37.108Z,4.50
2022-12-31T12:37:26.362Z,6.30
2022-12-31T12:40:01.682Z,4.30
2022-12-31T12:42:31.542Z,4.60
2022-12-31T12:45:18.268Z,3.40
2022-12-31T12:47:49.235Z,2.70
2022-12-31T12:50:24.006Z,4.10
2022-12-31T12:53:19.101Z,1.20
2022-12-31T12:55:58.866Z,2.30
2022-12-31T12:59:12.801Z,2.60
2022-12-31T13:02:02.993Z,3.20
2022-12-31T13:04:49.335Z,3.60
2022-12-31T13:07:42.562Z,5.00
2022-12-31T13:10:48.584Z,2.70
2022-12-31T13:13:56.170Z,3.80
2022-12-31T13:17:00.160Z,2.90
2022-12-31T13:20:04.374Z,3.50
2022-12-31T13:22:43.329Z,4.90
2022-12-31T13:25:32.989Z,8.80
2022-12-31T13:28:11.360Z,2.60
2022-12-31T13:30:47.798Z,2.20
2022-12-31T13:33:24.825Z,2.30
2022-12-31T13:36:06.313Z,2.30
2022-12-31T13:38:48.677Z,3.00
2022-12-31T13:41:23.038Z,5.80
2022-12-31T13:44:00.625Z,3.30
2022-12-31T13:46:41.813Z,3.30
2022-12-31T13:49:27.037Z,2.20
2022-12-31T13:52:33.486Z,1.90
2022-12-31T13:55:16.906Z,2.20
2022-12-31T13:58:04.063Z,4.30
2022-12-31T14:00:50.682Z,3.50
2022-12-31T14:03:38.774Z,4.80
2022-12-31T14:06:10.362Z,3.80
2022-12-31T14:08:39.057Z,3.80
2022-12-31T14:11:19.557Z,5.30
2022-12-31T14:14:10.316Z,2.80
2022-12-31T14:17:06.906Z,3.10
2022-12-31T14:19:43.350Z,2.90
2022-12-31T14:22:23.944Z,4.30
2022-12-31T14:24:54.408Z,4.20
2022-12-31T14:27:37.348Z,3.00
2022-12-31T14:30:15.711Z,3.40
2022-12-31T14:33:29.452Z,5.10
2022-12-31T14:36:29.176Z,4.70
2022-12-31T14:39:18.853Z,4.90
2022-12-31T14:42:05.596Z,2.70
2022-12-31T14:44:55.916Z,3.70
2022-12-31T14:47:43.083Z,3.70
2022-12-31T14:50:17.864Z,2.40
2022-12-31T14:52:58.837Z,4.50
2022-12-31T14:55:38.847Z,2.60
2022-12-31T14:58:43.713Z,4.00
2022-12-31T15:01:18.104Z,2.00
2022-12-31T15:03:46.963Z,4.90
2022-12-31T15:06:25.441Z,2.60
2022-12-31T15:09:22.506Z,2.30
2022-12-31T15:12:22.272Z,2.90
2022-12-31T15:15:09.101Z,2.70
2022-12-31T15:17:54.591Z,3.00
2022-12-31T15:20:42.487Z,5.00
2022-12-31T15:23:21.745Z,4.80
2022-12-31T15:25:59.215Z,3.70
2022-12-31T15:28:37.928Z,5.50
2022-12-31T15:31:17.816Z,3.60
2022-12-31T15:34:04.254Z,6.00
2022-12-31T15:36:35.790Z,6.80
2022-12-31T15:39:30.981Z,6.80
2022-12-31T15:42:36.656Z,6.80
2022-12-31T15:44:57.424Z,4.90
2022-12-31T15:47:43.485Z,6.00
2022-12-31T15:50:19.539Z,7.90
2022-12-31T15:53:04.129Z,5.20
2022-12-31T15:55:48.668Z,6.70
2022-12-31T15:58:21.186Z,5.80
2022-12-31T16:01:17.683Z,8.30
2022-12-31T16:03:54.692Z,6.80
2022-12-31T16:06:25.675Z,7.80
2022-12-31T16:08:55.687Z,7.80
2022-12-31T16:11:30.620Z,5.30
2022-12-31T16:14:01.884Z,5.40
2022-12-31T16:16:34.099Z,7.90
2022-12-31T16:19:03.773Z,5.00
2022-12-31T16:21:37.657Z,6.90
2022-12-31T16:25:02.856Z,6.20
2022-12-31T16:27:29.891Z,5.90
2022-12-31T16:30:02.171Z,6.10
2022-12-31T16:32:39.271Z,6.00
2022-12-31T16:35:33.384Z,5.00
2022-12-31T16:38:02.305Z,7.20
2022-12-31T16:40:31.125Z,6.30
2022-12-31T16:43:03.380Z,5.10
2022-12-31T16:45:36.765Z,4.30
2022-12-31T16:48:17.966Z,5.80
2022-12-31T16:50:49.404Z,4.30
2022-12-31T16:53:21.056Z,4.10
2022-12-31T16:56:00.397Z,5.00
2022-12-31T16:58:33.652Z,6.40
2022-12-31T17:01:19.280Z,4.70
2022-12-31T17:03:52.435Z,5.40
2022-12-31T17:06:22.909Z,7.00
2022-12-31T17:08:58.765Z,6.80
2022-12-31T17:11:43.852Z,4.20
2022-12-31T17:14:14.445Z,5.90
2022-12-31T17:17:04.441Z,5.40
2022-12-31T17:19:38.023Z,5.20
2022-12-31T17:22:13.126Z,4.90
2022-12-31T17:24:41.565Z,5.40
2022-12-31T17:27:11.484Z,6.80
2022-12-31T17:29:40.079Z,8.60
2022-12-31T17:32:31.297Z,4.70
2022-12-31T17:35:02.749Z,4.40
2022-12-31T17:37:31.251Z,6.80
2022-12-31T17:40:40.995Z,6.00
2022-12-31T17:42:53.259Z,5.90
2022-12-31T17:45:22.391Z,5.70
2022-12-31T17:47:53.960Z,5.80
2022-12-31T17:50:25.969Z,4.90
2022-12-31T17:53:02.677Z,7.10
2022-12-31T17:55:31.509Z,4.90
2022-12-31T17:58:06.433Z,4.00
2022-12-31T18:00:37.695Z,4.20
2022-12-31T18:03:07.272Z,4.60
2022-12-31T18:05:36.558Z,4.80
2022-12-31T18:08:06.119Z,5.30
2022-12-31T18:10:38.524Z,6.50
2022-12-31T18:13:18.009Z,5.80
2022-12-31T18:15:46.916Z,5.80
2022-12-31T18:18:26.175Z,5.20
2022-12-31T18:21:17.390Z,6.30
2022-12-31T18:23:48.836Z,4.60
2022-12-31T18:26:21.956Z,5.30
2022-12-31T18:28:51.082Z,5.30
2022-12-31T18:31:24.476Z,7.60
2022-12-31T18:33:55.746Z,5.00
2022-12-31T18:36:29.150Z,5.50
2022-12-31T18:38:59.976Z,7.50
2022-12-31T18:41:48.407Z,9.70
2022-12-31T18:44:20.032Z,12.00
2022-12-31T18:46:48.792Z,11.20
2022-12-31T18:49:18.085Z,10.40
2022-12-31T18:51:46.938Z,10.10
2022-12-31T18:54:16.102Z,10.70
2022-12-31T18:56:48.349Z,8.80
2022-12-31T18:59:18.693Z,8.50
2022-12-31T19:01:46.760Z,9.70
2022-12-31T19:04:26.685Z,10.00
2022-12-31T19:06:56.704Z,11.60
2022-12-31T19:12:14.521Z,8.60
2022-12-31T19:14:43.031Z,7.90
2022-12-31T19:19:37.953Z,9.00
2022-12-31T19:22:06.520Z,10.90
2022-12-31T19:24:34.386Z,8.40
2022-12-31T19:27:02.329Z,10.10
2022-12-31T19:29:30.424Z,7.90
2022-12-31T19:32:01.146Z,10.80
2022-12-31T19:34:29.091Z,10.00
2022-12-31T19:36:57.095Z,8.90
2022-12-31T19:39:25.236Z,10.40
2022-12-31T19:41:58.754Z,9.70
2022-12-31T19:44:27.861Z,9.40
2022-12-31T19:46:56.393Z,9.90
2022-12-31T19:49:26.404Z,10.30
2022-12-31T19:51:55.603Z,10.20
2022-12-31T19:54:24.742Z,10.10
2022-12-31T19:56:53.477Z,10.00
2022-12-31T19:59:21.480Z,11.70
2022-12-31T20:01:49.583Z,11.40
2022-12-31T20:04:18.292Z,12.60
2022-12-31T20:06:46.758Z,9.40
2022-12-31T20:09:14.921Z,11.90
2022-12-31T20:11:43.269Z,9.80
2022-12-31T20:14:12.065Z,8.30
2022-12-31T20:16:40.379Z,9.00
2022-12-31T20:19:10.081Z,8.20
2022-12-31T20:21:38.913Z,9.40
2022-12-31T20:24:08.022Z,7.40
2022-12-31T20:26:36.654Z,7.30
2022-12-31T20:29:04.882Z,7.60
2022-12-31T20:31:32.924Z,8.40
2022-12-31T20:34:01.461Z,6.90
2022-12-31T20:36:29.502Z,9.10
2022-12-31T20:39:00.712Z,8.30
2022-12-31T20:41:29.010Z,10.90
2022-12-31T20:43:56.993Z,8.70
2022-12-31T20:46:29.525Z,8.50
2022-12-31T20:49:02.295Z,7.70
2022-12-31T20:51:32.963Z,8.90
2022-12-31T20:54:04.327Z,6.70
2022-12-31T20:56:35.577Z,8.20
2022-12-31T20:59:04.483Z,10.00
2022-12-31T21:02:11.205Z,8.20
2022-12-31T21:04:21.296Z,8.20
2022-12-31T21:06:49.383Z,7.10
2022-12-31T21:09:17.281Z,8.10
2022-12-31T21:12:03.684Z,10.30
2022-12-31T21:14:31.941Z,9.40
2022-12-31T21:16:59.900Z,8.20
2022-12-31T21:19:27.946Z,8.80
2022-12-31T21:21:56.159Z,8.60
2022-12-31T21:24:24.479Z,8.30
2022-12-31T21:26:55.643Z,9.20
2022-12-31T21:29:23.802Z,7.90
2022-12-31T21:31:51.821Z,6.80
2022-12-31T21:34:21.162Z,6.70
2022-12-31T21:36:49.413Z,7.00
2022-12-31T21:39:17.547Z,8.30
2022-12-31T21:41:52.018Z,9.30
2022-12-31T21:44:25.509Z,6.90
2022-12-31T21:47:34.910Z,9.30
2022-12-31T21:50:06.355Z,7.10
2022-12-31T21:52:35.236Z,7.50
2022-12-31T21:55:23.663Z,7.50
2022-12-31T21:58:24.769Z,6.60
2022-12-31T22:00:59.350Z,7.50
2022-12-31T22:03:28.484Z,7.20
2022-12-31T22:06:10.355Z,6.40
2022-12-31T22:08:40.283Z,7.60
2022-12-31T22:11:09.913Z,6.40
2022-12-31T22:13:38.844Z,6.70
2022-12-31T22:16:07.844Z,6.50
2022-12-31T22:18:39.314Z,7.10
2022-12-31T22:21:19.909Z,5.30
2022-12-31T22:23:54.899Z,6.00
2022-12-31T22:26:25.870Z,6.90
2022-12-31T22:28:59.556Z,5.10
2022-12-31T22:31:30.272Z,5.90
2022-12-31T22:33:58.723Z,7.60
2022-12-31T22:36:27.121Z,5.20
2022-12-31T22:38:58.249Z,5.40
2022-12-31T22:41:27.552Z,8.90
2022-12-31T22:44:02.967Z,7.00
2022-12-31T22:46:34.820Z,6.90
2022-12-31T22:49:04.782Z,6.30
2022-12-31T22:51:56.902Z,6.10
2022-12-31T22:54:21.676Z,5.80
2022-12-31T22:56:49.748Z,4.90
2022-12-31T22:59:17.723Z,6.40
2022-12-31T23:01:46.417Z,6.30
2022-12-31T23:04:14.584Z,5.60
2022-12-31T23:06:45.163Z,5.20
2022-12-31T23:09:33.535Z,8.40
2022-12-31T23:12:02.533Z,15.80
2022-12-31T23:14:49.367Z,17.20
2022-12-31T23:17:39.063Z,11.00
2022-12-31T23:20:31.094Z,9.40
2022-12-31T23:23:11.483Z,11.80
2022-12-31T23:25:48.588Z,13.90
2022-12-31T23:28:20.059Z,16.20
2022-12-31T23:30:48.892Z,15.40
2022-12-31T23:33:22.747Z,15.70
2022-12-31T23:35:50.961Z,17.10
2022-12-31T23:38:19.263Z,21.40
2022-12-31T23:40:47.247Z,22.30
2022-12-31T23:43:22.420Z,21.30
2022-12-31T23:45:51.224Z,20.90
2022-12-31T23:48:19.574Z,21.50
2022-12-31T23:50:54.293Z,24.50
2022-12-31T23:53:23.883Z,22.10
2022-12-31T23:55:53.205Z,18.70
2022-12-31T23:58:22.162Z,18.90
